createdAt,value
2018-01-22T07:22:24.289Z,1.11
2018-01-22T07:24:51.826Z,1.05
2018-01-22T07:27:19.330Z,1.07
2018-01-22T07:29:47.788Z,1.04
2018-01-22T07:32:15.326Z,1.06
2018-01-22T07:34:42.829Z,1.05
2018-01-22T07:37:10.351Z,1.10
2018-01-22T07:39:37.840Z,1.06
2018-01-22T07:42:05.402Z,1.10
2018-01-22T07:44:33.783Z,1.10
2018-01-22T07:47:01.391Z,1.11
2018-01-22T07:49:30.104Z,1.12
2018-01-22T07:54:49.084Z,1.14
2018-01-22T07:57:16.579Z,1.15
2018-01-22T07:59:44.061Z,1.14
2018-01-22T08:02:11.564Z,1.15
2018-01-22T08:04:39.069Z,1.14
2018-01-22T08:07:06.579Z,1.14
2018-01-22T08:09:34.067Z,1.12
2018-01-22T08:12:01.577Z,1.09
2018-01-22T08:14:29.085Z,1.08
2018-01-22T08:16:56.602Z,1.11
2018-01-22T08:19:24.155Z,1.14
2018-01-22T08:21:51.720Z,1.12
2018-01-22T08:24:19.241Z,1.13
2018-01-22T08:26:46.829Z,1.13
2018-01-22T08:29:14.407Z,1.14
2018-01-22T08:31:41.927Z,1.15
2018-01-22T08:34:09.457Z,1.17
2018-01-22T08:36:36.998Z,1.22
2018-01-22T08:39:04.505Z,1.24
2018-01-22T08:41:31.993Z,1.26
2018-01-22T08:43:59.520Z,1.28
2018-01-22T08:46:27.150Z,1.29
2018-01-22T08:48:54.659Z,1.31
2018-01-22T08:51:22.193Z,1.34
2018-01-22T08:53:49.800Z,1.34
2018-01-22T08:56:17.334Z,1.40
2018-01-22T08:58:44.911Z,1.39
2018-01-22T09:01:12.402Z,1.42
2018-01-22T09:03:39.954Z,1.49
2018-01-22T09:06:07.537Z,1.53
2018-01-22T09:08:35.034Z,1.59
2018-01-22T09:11:02.600Z,1.58
2018-01-22T09:13:30.126Z,1.60
2018-01-22T09:15:57.695Z,1.56
2018-01-22T09:18:25.441Z,1.57
2018-01-22T09:20:53.101Z,1.58
2018-01-22T09:23:20.614Z,1.57
2018-01-22T09:25:48.127Z,1.59
2018-01-22T09:28:15.659Z,1.59
2018-01-22T09:30:43.183Z,1.64
2018-01-22T09:33:10.697Z,1.62
2018-01-22T09:35:38.212Z,1.62
2018-01-22T09:38:05.710Z,1.65
2018-01-22T09:40:33.258Z,1.62
2018-01-22T09:43:00.888Z,1.65
2018-01-22T09:45:28.426Z,1.65
2018-01-22T09:47:55.949Z,1.66
2018-01-22T09:50:23.501Z,1.72
2018-01-22T09:52:51.927Z,1.72
2018-01-22T09:55:19.450Z,1.71
2018-01-22T09:57:46.962Z,1.82
2018-01-22T10:00:14.502Z,1.81
2018-01-22T10:02:42.064Z,1.91
2018-01-22T10:05:09.783Z,1.83
2018-01-22T10:07:37.444Z,1.84
2018-01-22T10:10:04.960Z,1.90
2018-01-22T10:12:32.481Z,1.91
2018-01-22T10:15:00.112Z,1.92
2018-01-22T10:17:27.690Z,1.90
2018-01-22T10:19:55.247Z,1.96
2018-01-22T10:22:22.789Z,1.93
2018-01-22T10:24:50.442Z,1.89
2018-01-22T10:27:18.021Z,1.91
2018-01-22T10:29:45.527Z,1.86
2018-01-22T10:32:13.064Z,1.87
2018-01-22T10:34:40.563Z,1.82
2018-01-22T10:37:08.058Z,1.90
2018-01-22T10:39:35.565Z,1.88
2018-01-22T10:42:03.085Z,1.88
2018-01-22T10:44:30.587Z,1.89
2018-01-22T10:46:58.141Z,1.90
2018-01-22T10:49:25.661Z,1.92
2018-01-22T10:51:53.175Z,1.94
2018-01-22T10:54:20.676Z,1.97
2018-01-22T10:56:48.172Z,2.06
2018-01-22T10:59:15.660Z,2.02
2018-01-22T11:01:43.149Z,2.15
2018-01-22T11:04:10.683Z,2.07
2018-01-22T11:06:38.184Z,1.97
2018-01-22T11:09:05.694Z,1.94
2018-01-22T11:11:33.246Z,1.99
2018-01-22T11:14:00.894Z,2.07
2018-01-22T11:16:28.428Z,1.90
2018-01-22T11:18:55.971Z,1.94
2018-01-22T11:21:23.519Z,1.98
2018-01-22T11:23:51.072Z,1.94
2018-01-22T11:26:18.594Z,1.96
2018-01-22T11:28:46.098Z,2.01
2018-01-22T11:31:13.610Z,2.05
2018-01-22T11:33:41.326Z,2.03
2018-01-22T11:36:08.829Z,2.01
2018-01-22T11:38:36.341Z,2.01
2018-01-22T11:41:03.858Z,2.03
2018-01-22T11:43:33.955Z,2.06
2018-01-22T11:46:01.531Z,2.16
2018-01-22T11:48:29.074Z,2.14
2018-01-22T11:50:56.580Z,2.08
2018-01-22T11:53:24.077Z,2.06
2018-01-22T11:55:51.627Z,2.09
2018-01-22T11:58:19.137Z,2.14
2018-01-22T12:00:46.672Z,2.17
2018-01-22T12:03:14.165Z,2.05
2018-01-22T12:05:41.670Z,2.04
2018-01-22T12:08:09.189Z,2.01
2018-01-22T12:10:36.702Z,2.05
2018-01-22T12:13:04.196Z,2.05
2018-01-22T12:15:31.806Z,1.96
2018-01-22T12:17:59.309Z,1.90
2018-01-22T12:20:26.832Z,1.92
2018-01-22T12:22:54.343Z,1.83
2018-01-22T12:25:21.862Z,1.85
2018-01-22T12:27:49.461Z,1.93
2018-01-22T12:30:17.016Z,1.91
2018-01-22T12:32:44.551Z,1.99
2018-01-22T12:35:12.100Z,2.03
2018-01-22T12:37:39.599Z,1.93
2018-01-22T12:40:07.093Z,1.91
2018-01-22T12:42:34.647Z,1.97
2018-01-22T12:45:02.151Z,2.05
2018-01-22T12:47:29.647Z,1.96
2018-01-22T12:49:57.169Z,1.93
2018-01-22T12:52:24.696Z,2.05
2018-01-22T12:54:52.255Z,2.09
2018-01-22T12:57:19.803Z,2.07
2018-01-22T12:59:47.368Z,2.11
2018-01-22T13:02:14.879Z,2.12
2018-01-22T13:04:42.401Z,2.16
2018-01-22T13:07:10.144Z,2.10
2018-01-22T13:09:37.672Z,2.15
2018-01-22T13:12:05.182Z,2.17
2018-01-22T13:14:32.713Z,2.13
2018-01-22T13:17:00.252Z,2.15
2018-01-22T13:19:27.907Z,2.11
2018-01-22T13:21:55.505Z,2.21
2018-01-22T13:24:23.070Z,2.23
2018-01-22T13:26:50.617Z,2.27
2018-01-22T13:29:18.143Z,2.25
2018-01-22T13:31:45.662Z,2.19
2018-01-22T13:34:13.173Z,2.19
2018-01-22T13:36:40.683Z,2.18
2018-01-22T13:39:08.183Z,2.17
2018-01-22T13:41:35.692Z,2.17
2018-01-22T13:44:03.212Z,2.22
2018-01-22T13:46:30.713Z,2.25
2018-01-22T13:48:58.215Z,2.24
2018-01-22T13:51:25.750Z,2.28
2018-01-22T13:53:53.328Z,2.27
2018-01-22T13:56:20.835Z,2.27
2018-01-22T13:58:48.354Z,2.23
2018-01-22T14:01:16.006Z,2.24
2018-01-22T14:03:43.521Z,2.28
2018-01-22T14:06:11.021Z,2.24
2018-01-22T14:08:38.534Z,2.22
2018-01-22T14:11:06.076Z,2.23
2018-01-22T14:13:33.660Z,2.24
2018-01-22T14:16:01.177Z,2.28
2018-01-22T14:18:28.710Z,2.26
2018-01-22T14:20:56.371Z,2.26
2018-01-22T14:23:23.901Z,2.26
2018-01-22T14:25:51.442Z,2.27
2018-01-22T14:28:18.957Z,2.27
2018-01-22T14:30:46.473Z,2.30
2018-01-22T14:33:13.981Z,2.25
2018-01-22T14:35:41.479Z,2.26
2018-01-22T14:38:09.033Z,2.31
2018-01-22T14:40:36.590Z,2.27
2018-01-22T14:43:04.110Z,2.29
2018-01-22T14:45:31.630Z,2.24
2018-01-22T14:47:59.147Z,2.27
2018-01-22T14:50:26.647Z,2.32
2018-01-22T14:52:54.170Z,2.33
2018-01-22T14:55:21.677Z,2.27
2018-01-22T14:57:49.680Z,2.27
2018-01-22T15:00:17.191Z,2.26
2018-01-22T15:02:44.880Z,2.28
2018-01-22T15:05:13.262Z,2.28
2018-01-22T15:07:40.815Z,2.29
2018-01-22T15:10:08.304Z,2.30
2018-01-22T15:12:35.885Z,2.33
2018-01-22T15:15:03.400Z,2.35
2018-01-22T15:17:31.217Z,2.33
2018-01-22T15:19:58.726Z,2.33
2018-01-22T15:22:26.332Z,2.37
2018-01-22T15:24:54.135Z,2.38
2018-01-22T15:27:21.688Z,2.39
2018-01-22T15:29:49.201Z,2.43
2018-01-22T15:32:16.733Z,2.44
2018-01-22T15:34:44.304Z,2.50
2018-01-22T15:37:12.860Z,2.52
2018-01-22T15:39:40.413Z,2.51
2018-01-22T15:42:07.974Z,2.52
2018-01-22T15:44:35.530Z,2.53
2018-01-22T15:47:03.042Z,2.56
2018-01-22T15:49:30.682Z,2.61
2018-01-22T15:51:58.213Z,2.62
2018-01-22T15:54:25.820Z,2.64
2018-01-22T15:56:53.428Z,2.68
2018-01-22T15:59:20.992Z,2.76
2018-01-22T16:01:48.498Z,2.76
2018-01-22T16:04:16.109Z,2.81
2018-01-22T16:06:43.619Z,2.82
2018-01-22T16:09:11.193Z,2.87
2018-01-22T16:11:38.725Z,2.91
2018-01-22T16:14:06.254Z,2.92
2018-01-22T16:16:33.771Z,3.00
2018-01-22T16:19:01.352Z,3.02
2018-01-22T16:21:28.928Z,3.05
2018-01-22T16:23:56.458Z,3.09
2018-01-22T16:26:23.995Z,3.11
2018-01-22T16:28:51.514Z,3.13
2018-01-22T16:31:19.045Z,3.16
2018-01-22T16:33:46.562Z,3.17
2018-01-22T16:36:14.250Z,3.20
2018-01-22T16:38:41.814Z,3.23
2018-01-22T16:41:09.358Z,3.26
2018-01-22T16:43:36.858Z,3.27
2018-01-22T16:46:04.360Z,3.31
2018-01-22T16:48:31.898Z,3.35
2018-01-22T16:50:59.455Z,3.37
2018-01-22T16:53:27.009Z,3.41
2018-01-22T16:55:54.517Z,3.42
2018-01-22T16:58:22.069Z,3.44
2018-01-22T17:00:49.566Z,3.48
2018-01-22T17:03:17.088Z,3.50
2018-01-22T17:05:44.577Z,3.52
2018-01-22T17:08:12.081Z,3.54
2018-01-22T17:10:39.603Z,3.56
2018-01-22T17:13:07.091Z,3.59
2018-01-22T17:15:34.595Z,3.60
2018-01-22T17:18:02.152Z,3.62
2018-01-22T17:20:29.691Z,3.68
2018-01-22T17:22:57.193Z,3.70
2018-01-22T17:25:24.789Z,3.75
2018-01-22T17:27:52.318Z,3.78
2018-01-22T17:30:19.865Z,3.78
2018-01-22T17:32:47.427Z,3.81
2018-01-22T17:35:14.966Z,3.83
2018-01-22T17:37:42.489Z,3.86
2018-01-22T17:40:10.021Z,3.89
2018-01-22T17:42:37.545Z,3.90
2018-01-22T17:45:06.261Z,3.97
2018-01-22T17:47:33.838Z,3.99
2018-01-22T17:50:01.354Z,4.03
2018-01-22T17:52:28.872Z,4.05
2018-01-22T17:54:56.399Z,4.09
2018-01-22T17:57:24.107Z,4.11
2018-01-22T17:59:51.662Z,4.13
2018-01-22T18:02:19.261Z,4.15
2018-01-22T18:04:47.117Z,4.17
2018-01-22T18:07:14.703Z,4.17
2018-01-22T18:09:42.234Z,4.18
2018-01-22T18:12:10.276Z,4.23
2018-01-22T18:14:37.819Z,4.23
2018-01-22T18:17:05.417Z,4.20
2018-01-22T18:19:32.994Z,4.22
2018-01-22T18:22:00.572Z,4.23
2018-01-22T18:24:28.061Z,4.21
2018-01-22T18:26:55.574Z,4.21
2018-01-22T18:29:23.301Z,4.21
2018-01-22T18:31:51.258Z,4.20
2018-01-22T18:34:18.828Z,4.21
2018-01-22T18:36:46.348Z,4.21
2018-01-22T18:39:13.919Z,4.24
2018-01-22T18:41:42.915Z,4.22
2018-01-22T18:44:13.204Z,4.22
2018-01-22T18:46:40.985Z,4.22
2018-01-22T18:49:08.539Z,4.25
2018-01-22T18:51:36.118Z,4.24
2018-01-22T18:54:03.664Z,4.23
2018-01-22T18:56:31.324Z,4.24
2018-01-22T18:58:58.873Z,4.25
2018-01-22T19:01:26.455Z,4.27
2018-01-22T19:03:53.978Z,4.28
2018-01-22T19:06:21.481Z,4.29
2018-01-22T19:08:48.985Z,4.28
2018-01-22T19:11:16.573Z,4.29
2018-01-22T19:13:44.246Z,4.33
2018-01-22T19:16:11.756Z,4.36
2018-01-22T19:18:39.285Z,4.35
2018-01-22T19:21:06.869Z,4.36
2018-01-22T19:23:34.390Z,4.35
2018-01-22T19:26:01.984Z,4.36
2018-01-22T19:28:29.523Z,4.36
2018-01-22T19:30:57.040Z,4.35
2018-01-22T19:33:24.583Z,4.37
2018-01-22T19:35:52.096Z,4.40
2018-01-22T19:38:19.594Z,4.43
2018-01-22T19:40:47.097Z,4.38
2018-01-22T19:43:14.664Z,4.39
2018-01-22T19:45:42.369Z,4.40
2018-01-22T19:48:09.978Z,4.36
2018-01-22T19:50:37.500Z,4.42
2018-01-22T19:53:05.045Z,4.44
2018-01-22T19:55:33.023Z,4.43
2018-01-22T19:58:00.602Z,4.42
2018-01-22T20:00:28.162Z,4.41
2018-01-22T20:02:55.657Z,4.44
2018-01-22T20:05:23.181Z,4.42
2018-01-22T20:07:50.708Z,4.42
2018-01-22T20:10:18.240Z,4.42
2018-01-22T20:12:45.750Z,4.42
2018-01-22T20:15:13.338Z,4.44
2018-01-22T20:17:40.853Z,4.36
2018-01-22T20:20:08.354Z,4.40
2018-01-22T20:22:35.890Z,4.40
2018-01-22T20:25:03.490Z,4.36
2018-01-22T20:27:30.986Z,4.39
2018-01-22T20:29:58.498Z,4.35
2018-01-22T20:32:26.108Z,4.34
2018-01-22T20:34:53.776Z,4.42
2018-01-22T20:37:21.361Z,4.37
2018-01-22T20:39:48.892Z,4.43
2018-01-22T20:42:16.430Z,4.42
2018-01-22T20:44:43.932Z,4.40
2018-01-22T20:47:11.416Z,4.40
2018-01-22T20:49:39.046Z,4.43
2018-01-22T20:52:06.549Z,4.46
2018-01-22T20:54:34.071Z,4.46
2018-01-22T20:57:01.761Z,4.49
2018-01-22T20:59:29.397Z,4.45
2018-01-22T21:01:56.930Z,4.41
2018-01-22T21:04:25.125Z,4.46
2018-01-22T21:06:52.676Z,4.44
2018-01-22T21:09:20.187Z,4.41
2018-01-22T21:11:47.715Z,4.44
2018-01-22T21:14:15.252Z,4.44
2018-01-22T21:16:42.828Z,4.46
2018-01-22T21:19:10.323Z,4.45
2018-01-22T21:21:37.885Z,4.47
2018-01-22T21:24:07.299Z,4.43
2018-01-22T21:26:35.278Z,4.43
2018-01-22T21:29:02.824Z,4.45
2018-01-22T21:31:30.356Z,4.43
2018-01-22T21:33:57.908Z,4.47
2018-01-22T21:36:25.457Z,4.49
2018-01-22T21:38:53.099Z,4.49
2018-01-22T21:41:20.684Z,4.49
2018-01-22T21:43:48.203Z,4.45
2018-01-22T21:46:15.888Z,4.42
2018-01-22T21:48:43.459Z,4.44
2018-01-22T21:51:11.016Z,4.43
2018-01-22T21:53:38.577Z,4.41
2018-01-22T21:56:06.108Z,4.47
2018-01-22T21:58:33.633Z,4.44
2018-01-22T22:01:01.201Z,4.46
2018-01-22T22:03:28.764Z,4.48
2018-01-22T22:05:56.275Z,4.48
2018-01-22T22:08:23.782Z,4.52
2018-01-22T22:10:51.315Z,4.53
2018-01-22T22:13:18.883Z,4.56
2018-01-22T22:15:46.498Z,4.55
2018-01-22T22:18:14.078Z,4.54
2018-01-22T22:20:41.589Z,4.60
2018-01-22T22:23:09.087Z,4.61
2018-01-22T22:25:36.655Z,4.63
2018-01-22T22:28:04.282Z,4.65
2018-01-22T22:30:31.789Z,4.65
2018-01-22T22:32:59.302Z,4.63
2018-01-22T22:35:26.832Z,4.61
2018-01-22T22:37:54.356Z,4.64
2018-01-22T22:40:21.913Z,4.67
2018-01-22T22:42:49.494Z,4.71
2018-01-22T22:45:17.010Z,4.64
2018-01-22T22:47:44.522Z,4.68
2018-01-22T22:50:12.105Z,4.71
2018-01-22T22:52:39.632Z,4.72
2018-01-22T22:55:07.153Z,4.71
2018-01-22T22:57:34.685Z,4.75
2018-01-22T23:00:02.236Z,4.77
2018-01-22T23:02:29.753Z,4.78
2018-01-22T23:04:57.322Z,4.79
2018-01-22T23:07:24.856Z,4.81
2018-01-22T23:09:52.413Z,4.83
2018-01-22T23:12:19.926Z,4.85
2018-01-22T23:14:47.469Z,4.89
2018-01-22T23:17:15.006Z,4.98
2018-01-22T23:19:42.548Z,5.04
2018-01-22T23:22:10.108Z,5.11
2018-01-22T23:24:37.605Z,5.13
2018-01-22T23:27:05.150Z,5.22
2018-01-22T23:29:32.670Z,5.28
2018-01-22T23:32:00.175Z,5.33
2018-01-22T23:34:27.706Z,5.42
2018-01-22T23:36:55.258Z,5.48
2018-01-22T23:39:22.771Z,5.51
2018-01-22T23:41:50.305Z,5.56
2018-01-22T23:44:17.862Z,5.56
2018-01-22T23:46:45.425Z,5.62
2018-01-22T23:49:12.947Z,5.66
2018-01-22T23:51:40.466Z,5.68
2018-01-22T23:54:07.958Z,5.70
2018-01-22T23:56:35.467Z,5.72
2018-01-22T23:59:02.986Z,5.77
